sensor_id;sensor_type;location;lat;lon;timestamp;P1;durP1;ratioP1;P2;durP2;ratioP2
40675;SDS011;26359;48.750;9.314;2022-11-15T00:02:07;15.45;;;11.70;;
40675;SDS011;26359;48.750;9.314;2022-11-15T00:04:32;14.77;;;11.25;;
40675;SDS011;26359;48.750;9.314;2022-11-15T00:06:58;15.75;;;12.52;;
40675;SDS011;26359;48.750;9.314;2022-11-15T00:09:24;15.20;;;13.70;;
40675;SDS011;26359;48.750;9.314;2022-11-15T00:11:50;14.10;;;10.23;;
40675;SDS011;26359;48.750;9.314;2022-11-15T00:14:16;13.73;;;12.35;;
40675;SDS011;26359;48.750;9.314;2022-11-15T00:16:42;10.00;;;8.00;;
40675;SDS011;26359;48.750;9.314;2022-11-15T00:19:08;12.60;;;10.43;;
40675;SDS011;26359;48.750;9.314;2022-11-15T00:21:33;13.68;;;9.15;;
40675;SDS011;26359;48.750;9.314;2022-11-15T00:23:59;11.52;;;9.50;;
40675;SDS011;26359;48.750;9.314;2022-11-15T00:26:24;13.63;;;11.43;;
40675;SDS011;26359;48.750;9.314;2022-11-15T00:28:51;16.40;;;14.80;;
40675;SDS011;26359;48.750;9.314;2022-11-15T00:31:18;15.25;;;11.30;;
40675;SDS011;26359;48.750;9.314;2022-11-15T00:33:43;16.08;;;14.05;;
40675;SDS011;26359;48.750;9.314;2022-11-15T00:36:09;13.25;;;11.95;;
40675;SDS011;26359;48.750;9.314;2022-11-15T00:38:36;13.68;;;12.18;;
40675;SDS011;26359;48.750;9.314;2022-11-15T00:41:04;13.45;;;10.63;;
40675;SDS011;26359;48.750;9.314;2022-11-15T00:43:30;13.13;;;11.93;;
40675;SDS011;26359;48.750;9.314;2022-11-15T00:45:56;15.23;;;10.55;;
40675;SDS011;26359;48.750;9.314;2022-11-15T00:48:22;10.90;;;9.80;;
40675;SDS011;26359;48.750;9.314;2022-11-15T00:50:48;11.45;;;10.32;;
40675;SDS011;26359;48.750;9.314;2022-11-15T00:53:14;13.57;;;9.80;;
40675;SDS011;26359;48.750;9.314;2022-11-15T00:55:40;11.10;;;9.85;;
40675;SDS011;26359;48.750;9.314;2022-11-15T00:58:05;10.85;;;9.38;;
40675;SDS011;26359;48.750;9.314;2022-11-15T01:00:31;11.88;;;9.95;;
40675;SDS011;26359;48.750;9.314;2022-11-15T01:02:56;9.80;;;8.00;;
40675;SDS011;26359;48.750;9.314;2022-11-15T01:05:22;9.05;;;8.20;;
40675;SDS011;26359;48.750;9.314;2022-11-15T01:07:50;13.70;;;8.52;;
40675;SDS011;26359;48.750;9.314;2022-11-15T01:10:20;9.93;;;8.18;;
40675;SDS011;26359;48.750;9.314;2022-11-15T01:12:47;11.68;;;8.52;;
40675;SDS011;26359;48.750;9.314;2022-11-15T01:15:13;11.13;;;9.93;;
40675;SDS011;26359;48.750;9.314;2022-11-15T01:17:38;10.32;;;8.48;;
40675;SDS011;26359;48.750;9.314;2022-11-15T01:20:04;11.00;;;9.90;;
40675;SDS011;26359;48.750;9.314;2022-11-15T01:22:30;10.07;;;9.00;;
40675;SDS011;26359;48.750;9.314;2022-11-15T01:24:56;11.35;;;10.25;;
40675;SDS011;26359;48.750;9.314;2022-11-15T01:27:22;11.27;;;10.05;;
40675;SDS011;26359;48.750;9.314;2022-11-15T01:29:47;11.45;;;10.35;;
40675;SDS011;26359;48.750;9.314;2022-11-15T01:32:13;11.82;;;10.05;;
40675;SDS011;26359;48.750;9.314;2022-11-15T01:34:38;15.02;;;13.82;;
40675;SDS011;26359;48.750;9.314;2022-11-15T01:37:04;13.40;;;12.05;;
40675;SDS011;26359;48.750;9.314;2022-11-15T01:39:29;13.30;;;10.73;;
40675;SDS011;26359;48.750;9.314;2022-11-15T01:41:55;14.07;;;12.95;;
40675;SDS011;26359;48.750;9.314;2022-11-15T01:47:08;10.52;;;9.00;;
40675;SDS011;26359;48.750;9.314;2022-11-15T01:49:37;15.18;;;14.05;;
40675;SDS011;26359;48.750;9.314;2022-11-15T01:52:07;11.45;;;10.45;;
40675;SDS011;26359;48.750;9.314;2022-11-15T01:54:36;13.88;;;12.75;;
40675;SDS011;26359;48.750;9.314;2022-11-15T01:57:04;15.38;;;14.18;;
40675;SDS011;26359;48.750;9.314;2022-11-15T01:59:33;7.53;;;6.72;;
40675;SDS011;26359;48.750;9.314;2022-11-15T02:01:59;9.77;;;8.88;;
40675;SDS011;26359;48.750;9.314;2022-11-15T02:04:29;9.40;;;7.68;;
40675;SDS011;26359;48.750;9.314;2022-11-15T02:06:57;7.88;;;6.88;;
40675;SDS011;26359;48.750;9.314;2022-11-15T02:09:24;8.57;;;7.72;;
40675;SDS011;26359;48.750;9.314;2022-11-15T02:11:50;8.82;;;7.65;;
40675;SDS011;26359;48.750;9.314;2022-11-15T02:14:17;9.25;;;7.78;;
40675;SDS011;26359;48.750;9.314;2022-11-15T02:22:11;9.52;;;7.97;;
40675;SDS011;26359;48.750;9.314;2022-11-15T02:25:03;9.38;;;7.65;;
40675;SDS011;26359;48.750;9.314;2022-11-15T02:33:52;8.15;;;7.30;;
40675;SDS011;26359;48.750;9.314;2022-11-15T02:36:31;7.80;;;6.85;;
40675;SDS011;26359;48.750;9.314;2022-11-15T02:39:28;7.78;;;6.95;;
40675;SDS011;26359;48.750;9.314;2022-11-15T02:42:11;9.77;;;7.85;;
40675;SDS011;26359;48.750;9.314;2022-11-15T02:45:01;7.20;;;6.47;;
40675;SDS011;26359;48.750;9.314;2022-11-15T02:47:32;7.38;;;6.57;;
40675;SDS011;26359;48.750;9.314;2022-11-15T02:50:06;7.05;;;6.28;;
40675;SDS011;26359;48.750;9.314;2022-11-15T02:52:35;7.40;;;6.65;;
40675;SDS011;26359;48.750;9.314;2022-11-15T02:55:00;8.27;;;7.15;;
40675;SDS011;26359;48.750;9.314;2022-11-15T02:57:38;8.20;;;7.50;;
40675;SDS011;26359;48.750;9.314;2022-11-15T03:00:19;7.32;;;6.50;;
40675;SDS011;26359;48.750;9.314;2022-11-15T03:08:12;8.55;;;7.75;;
40675;SDS011;26359;48.750;9.314;2022-11-15T03:10:55;7.82;;;7.05;;
40675;SDS011;26359;48.750;9.314;2022-11-15T03:13:58;8.30;;;7.43;;
40675;SDS011;26359;48.750;9.314;2022-11-15T03:16:46;8.68;;;7.88;;
40675;SDS011;26359;48.750;9.314;2022-11-15T03:21:48;6.60;;;6.00;;
40675;SDS011;26359;48.750;9.314;2022-11-15T03:24:16;7.00;;;6.30;;
40675;SDS011;26359;48.750;9.314;2022-11-15T03:26:44;6.90;;;6.20;;
40675;SDS011;26359;48.750;9.314;2022-11-15T03:29:13;6.70;;;6.10;;
40675;SDS011;26359;48.750;9.314;2022-11-15T03:31:44;7.68;;;6.95;;
40675;SDS011;26359;48.750;9.314;2022-11-15T03:34:16;7.30;;;6.60;;
40675;SDS011;26359;48.750;9.314;2022-11-15T03:36:49;6.75;;;6.07;;
40675;SDS011;26359;48.750;9.314;2022-11-15T03:39:15;6.88;;;6.18;;
40675;SDS011;26359;48.750;9.314;2022-11-15T03:41:43;7.53;;;6.38;;
40675;SDS011;26359;48.750;9.314;2022-11-15T03:47:12;8.85;;;6.88;;
40675;SDS011;26359;48.750;9.314;2022-11-15T03:50:01;7.82;;;7.13;;
40675;SDS011;26359;48.750;9.314;2022-11-15T03:52:32;11.63;;;10.63;;
40675;SDS011;26359;48.750;9.314;2022-11-15T03:54:59;7.13;;;6.32;;
40675;SDS011;26359;48.750;9.314;2022-11-15T03:57:26;8.75;;;7.28;;
40675;SDS011;26359;48.750;9.314;2022-11-15T03:59:52;8.50;;;6.78;;
40675;SDS011;26359;48.750;9.314;2022-11-15T04:02:17;9.25;;;6.53;;
40675;SDS011;26359;48.750;9.314;2022-11-15T04:04:43;10.23;;;8.35;;
40675;SDS011;26359;48.750;9.314;2022-11-15T04:07:08;7.93;;;7.22;;
40675;SDS011;26359;48.750;9.314;2022-11-15T04:09:34;9.48;;;8.57;;
40675;SDS011;26359;48.750;9.314;2022-11-15T04:12:19;11.88;;;7.10;;
40675;SDS011;26359;48.750;9.314;2022-11-15T04:17:34;9.48;;;7.93;;
40675;SDS011;26359;48.750;9.314;2022-11-15T04:20:25;8.10;;;7.07;;
40675;SDS011;26359;48.750;9.314;2022-11-15T04:23:20;8.32;;;7.53;;
40675;SDS011;26359;48.750;9.314;2022-11-15T04:26:07;11.27;;;8.35;;
40675;SDS011;26359;48.750;9.314;2022-11-15T04:28:35;9.23;;;8.32;;
40675;SDS011;26359;48.750;9.314;2022-11-15T04:31:21;9.75;;;7.65;;
40675;SDS011;26359;48.750;9.314;2022-11-15T04:33:47;8.90;;;8.00;;
40675;SDS011;26359;48.750;9.314;2022-11-15T04:36:12;8.48;;;7.68;;
40675;SDS011;26359;48.750;9.314;2022-11-15T04:38:56;8.13;;;7.22;;
40675;SDS011;26359;48.750;9.314;2022-11-15T04:41:22;8.57;;;7.70;;
40675;SDS011;26359;48.750;9.314;2022-11-15T04:43:47;6.45;;;5.85;;
40675;SDS011;26359;48.750;9.314;2022-11-15T04:46:13;7.57;;;6.78;;
40675;SDS011;26359;48.750;9.314;2022-11-15T04:48:38;7.95;;;7.15;;
40675;SDS011;26359;48.750;9.314;2022-11-15T04:51:04;11.85;;;7.15;;
40675;SDS011;26359;48.750;9.314;2022-11-15T04:53:29;8.65;;;7.65;;
40675;SDS011;26359;48.750;9.314;2022-11-15T04:55:55;9.77;;;8.95;;
40675;SDS011;26359;48.750;9.314;2022-11-15T04:58:20;7.70;;;7.05;;
40675;SDS011;26359;48.750;9.314;2022-11-15T05:00:46;9.48;;;8.65;;
40675;SDS011;26359;48.750;9.314;2022-11-15T05:03:11;9.85;;;8.88;;
40675;SDS011;26359;48.750;9.314;2022-11-15T05:05:56;10.68;;;9.77;;
40675;SDS011;26359;48.750;9.314;2022-11-15T05:08:23;8.70;;;7.90;;
40675;SDS011;26359;48.750;9.314;2022-11-15T05:10:49;10.13;;;7.93;;
40675;SDS011;26359;48.750;9.314;2022-11-15T05:13:14;12.38;;;11.27;;
40675;SDS011;26359;48.750;9.314;2022-11-15T05:15:40;9.23;;;8.43;;
40675;SDS011;26359;48.750;9.314;2022-11-15T05:18:05;10.90;;;9.95;;
40675;SDS011;26359;48.750;9.314;2022-11-15T05:20:31;9.98;;;8.98;;
40675;SDS011;26359;48.750;9.314;2022-11-15T05:22:56;12.05;;;10.98;;
40675;SDS011;26359;48.750;9.314;2022-11-15T05:25:22;9.23;;;8.35;;
40675;SDS011;26359;48.750;9.314;2022-11-15T05:27:47;7.90;;;6.95;;
40675;SDS011;26359;48.750;9.314;2022-11-15T05:30:13;10.40;;;9.15;;
40675;SDS011;26359;48.750;9.314;2022-11-15T05:32:40;10.93;;;9.90;;
40675;SDS011;26359;48.750;9.314;2022-11-15T05:35:05;9.90;;;9.00;;
40675;SDS011;26359;48.750;9.314;2022-11-15T05:37:33;10.07;;;9.18;;
40675;SDS011;26359;48.750;9.314;2022-11-15T05:39:59;10.10;;;9.30;;
40675;SDS011;26359;48.750;9.314;2022-11-15T05:42:24;8.15;;;7.35;;
40675;SDS011;26359;48.750;9.314;2022-11-15T05:44:51;8.80;;;7.90;;
40675;SDS011;26359;48.750;9.314;2022-11-15T05:47:21;8.35;;;7.47;;
40675;SDS011;26359;48.750;9.314;2022-11-15T05:49:50;8.75;;;7.85;;
40675;SDS011;26359;48.750;9.314;2022-11-15T05:52:20;9.55;;;8.32;;
40675;SDS011;26359;48.750;9.314;2022-11-15T05:54:48;10.77;;;9.68;;
40675;SDS011;26359;48.750;9.314;2022-11-15T05:57:15;12.38;;;11.27;;
40675;SDS011;26359;48.750;9.314;2022-11-15T05:59:41;10.90;;;8.98;;
40675;SDS011;26359;48.750;9.314;2022-11-15T06:02:08;9.57;;;8.35;;
40675;SDS011;26359;48.750;9.314;2022-11-15T06:04:34;8.95;;;8.05;;
40675;SDS011;26359;48.750;9.314;2022-11-15T06:06:59;9.93;;;7.70;;
40675;SDS011;26359;48.750;9.314;2022-11-15T06:09:25;10.18;;;8.18;;
40675;SDS011;26359;48.750;9.314;2022-11-15T06:11:50;11.82;;;9.63;;
40675;SDS011;26359;48.750;9.314;2022-11-15T06:14:16;11.82;;;10.63;;
40675;SDS011;26359;48.750;9.314;2022-11-15T06:16:41;9.68;;;8.43;;
40675;SDS011;26359;48.750;9.314;2022-11-15T06:19:08;10.13;;;8.60;;
40675;SDS011;26359;48.750;9.314;2022-11-15T06:21:33;9.73;;;8.73;;
40675;SDS011;26359;48.750;9.314;2022-11-15T06:23:59;10.30;;;9.30;;
40675;SDS011;26359;48.750;9.314;2022-11-15T06:26:24;9.18;;;8.25;;
40675;SDS011;26359;48.750;9.314;2022-11-15T06:28:50;9.43;;;8.02;;
40675;SDS011;26359;48.750;9.314;2022-11-15T06:31:16;12.10;;;9.05;;
40675;SDS011;26359;48.750;9.314;2022-11-15T06:33:41;12.35;;;9.05;;
40675;SDS011;26359;48.750;9.314;2022-11-15T06:36:08;11.13;;;8.75;;
40675;SDS011;26359;48.750;9.314;2022-11-15T06:38:35;10.63;;;7.07;;
40675;SDS011;26359;48.750;9.314;2022-11-15T06:41:02;8.18;;;7.35;;
40675;SDS011;26359;48.750;9.314;2022-11-15T06:43:29;9.98;;;7.72;;
40675;SDS011;26359;48.750;9.314;2022-11-15T06:45:55;8.63;;;7.50;;
40675;SDS011;26359;48.750;9.314;2022-11-15T06:48:20;8.05;;;7.35;;
40675;SDS011;26359;48.750;9.314;2022-11-15T06:50:53;6.97;;;6.20;;
40675;SDS011;26359;48.750;9.314;2022-11-15T06:53:20;7.13;;;6.43;;
40675;SDS011;26359;48.750;9.314;2022-11-15T06:55:45;9.40;;;7.82;;
40675;SDS011;26359;48.750;9.314;2022-11-15T06:58:11;8.20;;;6.93;;
40675;SDS011;26359;48.750;9.314;2022-11-15T07:00:37;8.88;;;7.15;;
40675;SDS011;26359;48.750;9.314;2022-11-15T07:03:02;8.05;;;7.18;;
40675;SDS011;26359;48.750;9.314;2022-11-15T07:05:28;8.02;;;6.68;;
40675;SDS011;26359;48.750;9.314;2022-11-15T07:07:54;8.98;;;7.40;;
40675;SDS011;26359;48.750;9.314;2022-11-15T07:10:21;7.00;;;6.35;;
40675;SDS011;26359;48.750;9.314;2022-11-15T07:12:49;7.50;;;6.20;;
40675;SDS011;26359;48.750;9.314;2022-11-15T07:15:15;7.75;;;6.72;;
40675;SDS011;26359;48.750;9.314;2022-11-15T07:17:41;7.45;;;6.75;;
40675;SDS011;26359;48.750;9.314;2022-11-15T07:20:07;7.43;;;6.72;;
40675;SDS011;26359;48.750;9.314;2022-11-15T07:22:33;6.65;;;6.03;;
40675;SDS011;26359;48.750;9.314;2022-11-15T07:24:59;7.45;;;6.22;;
40675;SDS011;26359;48.750;9.314;2022-11-15T07:27:24;7.75;;;6.55;;
40675;SDS011;26359;48.750;9.314;2022-11-15T07:29:50;9.63;;;8.63;;
40675;SDS011;26359;48.750;9.314;2022-11-15T07:32:15;7.65;;;6.80;;
40675;SDS011;26359;48.750;9.314;2022-11-15T07:34:41;7.85;;;6.78;;
40675;SDS011;26359;48.750;9.314;2022-11-15T07:37:06;8.20;;;7.10;;
40675;SDS011;26359;48.750;9.314;2022-11-15T07:39:32;9.65;;;8.85;;
40675;SDS011;26359;48.750;9.314;2022-11-15T07:41:58;7.03;;;6.32;;
40675;SDS011;26359;48.750;9.314;2022-11-15T07:44:43;8.45;;;7.63;;
40675;SDS011;26359;48.750;9.314;2022-11-15T07:47:08;10.00;;;8.25;;
40675;SDS011;26359;48.750;9.314;2022-11-15T07:49:34;9.82;;;8.07;;
40675;SDS011;26359;48.750;9.314;2022-11-15T07:51:59;9.82;;;8.32;;
40675;SDS011;26359;48.750;9.314;2022-11-15T07:54:25;8.18;;;6.72;;
40675;SDS011;26359;48.750;9.314;2022-11-15T07:56:50;9.85;;;8.15;;
40675;SDS011;26359;48.750;9.314;2022-11-15T07:59:16;9.85;;;7.32;;
40675;SDS011;26359;48.750;9.314;2022-11-15T08:01:41;8.25;;;7.45;;
40675;SDS011;26359;48.750;9.314;2022-11-15T08:04:07;8.50;;;6.82;;
40675;SDS011;26359;48.750;9.314;2022-11-15T08:06:34;8.48;;;7.57;;
40675;SDS011;26359;48.750;9.314;2022-11-15T08:09:00;11.18;;;7.55;;
40675;SDS011;26359;48.750;9.314;2022-11-15T08:11:25;12.55;;;8.25;;
40675;SDS011;26359;48.750;9.314;2022-11-15T08:13:51;9.70;;;8.80;;
40675;SDS011;26359;48.750;9.314;2022-11-15T08:16:17;11.30;;;8.45;;
40675;SDS011;26359;48.750;9.314;2022-11-15T08:18:42;9.95;;;8.43;;
40675;SDS011;26359;48.750;9.314;2022-11-15T08:21:08;9.30;;;8.13;;
40675;SDS011;26359;48.750;9.314;2022-11-15T08:23:34;10.10;;;8.15;;
40675;SDS011;26359;48.750;9.314;2022-11-15T08:26:03;9.55;;;8.45;;
40675;SDS011;26359;48.750;9.314;2022-11-15T08:28:30;12.63;;;9.32;;
40675;SDS011;26359;48.750;9.314;2022-11-15T08:30:56;11.15;;;8.18;;
40675;SDS011;26359;48.750;9.314;2022-11-15T08:33:22;10.55;;;8.05;;
40675;SDS011;26359;48.750;9.314;2022-11-15T08:35:48;7.82;;;7.03;;
40675;SDS011;26359;48.750;9.314;2022-11-15T08:38:14;10.32;;;8.77;;
40675;SDS011;26359;48.750;9.314;2022-11-15T08:40:40;10.23;;;8.60;;
40675;SDS011;26359;48.750;9.314;2022-11-15T08:43:06;10.82;;;7.88;;
40675;SDS011;26359;48.750;9.314;2022-11-15T08:45:32;12.15;;;8.48;;
40675;SDS011;26359;48.750;9.314;2022-11-15T08:48:00;9.40;;;8.43;;
40675;SDS011;26359;48.750;9.314;2022-11-15T08:50:27;10.15;;;9.02;;
40675;SDS011;26359;48.750;9.314;2022-11-15T08:52:53;10.57;;;8.10;;
40675;SDS011;26359;48.750;9.314;2022-11-15T08:55:18;12.25;;;10.60;;
40675;SDS011;26359;48.750;9.314;2022-11-15T08:57:44;9.32;;;8.38;;
40675;SDS011;26359;48.750;9.314;2022-11-15T09:00:10;9.23;;;7.80;;
40675;SDS011;26359;48.750;9.314;2022-11-15T09:02:37;7.90;;;7.13;;
40675;SDS011;26359;48.750;9.314;2022-11-15T09:05:04;9.60;;;8.43;;
40675;SDS011;26359;48.750;9.314;2022-11-15T09:07:30;11.85;;;9.82;;
40675;SDS011;26359;48.750;9.314;2022-11-15T09:09:56;11.35;;;9.68;;
40675;SDS011;26359;48.750;9.314;2022-11-15T09:12:23;15.40;;;13.93;;
40675;SDS011;26359;48.750;9.314;2022-11-15T09:14:48;11.70;;;10.70;;
40675;SDS011;26359;48.750;9.314;2022-11-15T09:17:14;10.02;;;9.02;;
40675;SDS011;26359;48.750;9.314;2022-11-15T09:19:39;9.65;;;8.38;;
40675;SDS011;26359;48.750;9.314;2022-11-15T09:22:05;11.93;;;10.65;;
40675;SDS011;26359;48.750;9.314;2022-11-15T09:24:32;14.57;;;9.68;;
40675;SDS011;26359;48.750;9.314;2022-11-15T09:26:57;13.18;;;11.98;;
40675;SDS011;26359;48.750;9.314;2022-11-15T09:29:23;12.93;;;11.40;;
40675;SDS011;26359;48.750;9.314;2022-11-15T09:31:48;14.05;;;10.90;;
40675;SDS011;26359;48.750;9.314;2022-11-15T09:34:17;13.32;;;11.27;;
40675;SDS011;26359;48.750;9.314;2022-11-15T09:36:42;16.00;;;11.55;;
40675;SDS011;26359;48.750;9.314;2022-11-15T09:39:08;14.98;;;12.35;;
40675;SDS011;26359;48.750;9.314;2022-11-15T09:44:56;13.13;;;11.55;;
40675;SDS011;26359;48.750;9.314;2022-11-15T09:50:51;12.07;;;9.23;;
40675;SDS011;26359;48.750;9.314;2022-11-15T09:53:25;15.57;;;10.95;;
40675;SDS011;26359;48.750;9.314;2022-11-15T09:56:21;12.15;;;10.65;;
40675;SDS011;26359;48.750;9.314;2022-11-15T09:58:54;10.82;;;9.73;;
40675;SDS011;26359;48.750;9.314;2022-11-15T10:04:10;17.20;;;10.60;;
40675;SDS011;26359;48.750;9.314;2022-11-15T10:06:37;16.58;;;12.73;;
40675;SDS011;26359;48.750;9.314;2022-11-15T10:09:23;12.65;;;11.23;;
40675;SDS011;26359;48.750;9.314;2022-11-15T10:12:01;12.60;;;10.43;;
40675;SDS011;26359;48.750;9.314;2022-11-15T10:14:27;17.45;;;10.18;;
40675;SDS011;26359;48.750;9.314;2022-11-15T10:19:43;11.13;;;9.90;;
40675;SDS011;26359;48.750;9.314;2022-11-15T10:22:30;14.48;;;11.85;;
40675;SDS011;26359;48.750;9.314;2022-11-15T10:27:34;20.17;;;18.48;;
40675;SDS011;26359;48.750;9.314;2022-11-15T10:29:59;23.65;;;21.65;;
40675;SDS011;26359;48.750;9.314;2022-11-15T10:32:25;16.02;;;11.77;;
40675;SDS011;26359;48.750;9.314;2022-11-15T10:34:52;14.88;;;12.65;;
40675;SDS011;26359;48.750;9.314;2022-11-15T10:37:35;13.88;;;12.43;;
40675;SDS011;26359;48.750;9.314;2022-11-15T10:42:31;16.80;;;12.20;;
40675;SDS011;26359;48.750;9.314;2022-11-15T10:44:56;13.23;;;11.20;;
40675;SDS011;26359;48.750;9.314;2022-11-15T10:49:59;15.65;;;12.38;;
40675;SDS011;26359;48.750;9.314;2022-11-15T10:52:27;16.20;;;13.07;;
40675;SDS011;26359;48.750;9.314;2022-11-15T10:54:56;14.43;;;12.00;;
40675;SDS011;26359;48.750;9.314;2022-11-15T10:57:35;17.02;;;12.60;;
40675;SDS011;26359;48.750;9.314;2022-11-15T11:00:26;15.68;;;13.88;;
40675;SDS011;26359;48.750;9.314;2022-11-15T11:03:20;14.27;;;12.30;;
40675;SDS011;26359;48.750;9.314;2022-11-15T11:06:03;15.70;;;14.27;;
40675;SDS011;26359;48.750;9.314;2022-11-15T11:08:31;15.00;;;12.32;;
40675;SDS011;26359;48.750;9.314;2022-11-15T11:10:58;15.63;;;14.05;;
40675;SDS011;26359;48.750;9.314;2022-11-15T11:21:40;12.20;;;10.95;;
40675;SDS011;26359;48.750;9.314;2022-11-15T11:24:23;17.60;;;16.00;;
40675;SDS011;26359;48.750;9.314;2022-11-15T11:27:13;16.92;;;15.23;;
40675;SDS011;26359;48.750;9.314;2022-11-15T11:32:30;15.80;;;14.38;;
40675;SDS011;26359;48.750;9.314;2022-11-15T11:35:13;11.30;;;8.85;;
40675;SDS011;26359;48.750;9.314;2022-11-15T11:43:05;14.85;;;13.48;;
40675;SDS011;26359;48.750;9.314;2022-11-15T11:46:13;11.90;;;10.73;;
40675;SDS011;26359;48.750;9.314;2022-11-15T11:49:01;12.50;;;11.02;;
40675;SDS011;26359;48.750;9.314;2022-11-15T11:54:06;11.38;;;10.23;;
40675;SDS011;26359;48.750;9.314;2022-11-15T11:56:36;9.00;;;7.82;;
40675;SDS011;26359;48.750;9.314;2022-11-15T11:59:16;10.20;;;8.43;;
40675;SDS011;26359;48.750;9.314;2022-11-15T12:01:54;11.50;;;10.48;;
40675;SDS011;26359;48.750;9.314;2022-11-15T12:04:30;12.10;;;10.63;;
40675;SDS011;26359;48.750;9.314;2022-11-15T12:07:18;9.30;;;7.82;;
40675;SDS011;26359;48.750;9.314;2022-11-15T12:10:05;11.25;;;10.07;;
40675;SDS011;26359;48.750;9.314;2022-11-15T12:15:24;11.45;;;9.07;;
40675;SDS011;26359;48.750;9.314;2022-11-15T12:17:55;13.75;;;8.98;;
40675;SDS011;26359;48.750;9.314;2022-11-15T12:20:23;11.63;;;7.95;;
40675;SDS011;26359;48.750;9.314;2022-11-15T12:22:55;9.32;;;8.43;;
40675;SDS011;26359;48.750;9.314;2022-11-15T12:25:29;12.98;;;10.18;;
40675;SDS011;26359;48.750;9.314;2022-11-15T12:28:18;13.65;;;9.15;;
40675;SDS011;26359;48.750;9.314;2022-11-15T12:30:50;12.43;;;8.50;;
40675;SDS011;26359;48.750;9.314;2022-11-15T12:35:59;10.98;;;9.07;;
40675;SDS011;26359;48.750;9.314;2022-11-15T12:41:16;10.50;;;8.15;;
40675;SDS011;26359;48.750;9.314;2022-11-15T12:43:44;10.73;;;8.80;;
40675;SDS011;26359;48.750;9.314;2022-11-15T12:46:12;9.30;;;8.40;;
40675;SDS011;26359;48.750;9.314;2022-11-15T12:52:03;12.32;;;11.05;;
40675;SDS011;26359;48.750;9.314;2022-11-15T12:57:22;11.82;;;10.73;;
40675;SDS011;26359;48.750;9.314;2022-11-15T13:02:39;12.95;;;11.00;;
40675;SDS011;26359;48.750;9.314;2022-11-15T13:20:16;13.07;;;10.60;;
40675;SDS011;26359;48.750;9.314;2022-11-15T13:23:30;10.82;;;8.63;;
40675;SDS011;26359;48.750;9.314;2022-11-15T13:30:57;8.52;;;7.70;;
40675;SDS011;26359;48.750;9.314;2022-11-15T13:33:25;9.20;;;7.82;;
40675;SDS011;26359;48.750;9.314;2022-11-15T13:35:56;10.88;;;9.88;;
40675;SDS011;26359;48.750;9.314;2022-11-15T13:40:51;19.08;;;13.88;;
40675;SDS011;26359;48.750;9.314;2022-11-15T13:46:10;11.80;;;10.60;;
40675;SDS011;26359;48.750;9.314;2022-11-15T13:48:39;12.20;;;8.88;;
40675;SDS011;26359;48.750;9.314;2022-11-15T13:51:10;13.77;;;9.40;;
40675;SDS011;26359;48.750;9.314;2022-11-15T13:54:15;17.25;;;13.27;;
40675;SDS011;26359;48.750;9.314;2022-11-15T13:56:48;13.68;;;9.10;;
40675;SDS011;26359;48.750;9.314;2022-11-15T13:59:24;12.52;;;11.23;;
40675;SDS011;26359;48.750;9.314;2022-11-15T14:01:59;18.50;;;10.68;;
40675;SDS011;26359;48.750;9.314;2022-11-15T14:04:27;13.35;;;10.43;;
40675;SDS011;26359;48.750;9.314;2022-11-15T14:06:55;14.35;;;11.57;;
40675;SDS011;26359;48.750;9.314;2022-11-15T14:09:38;14.85;;;9.77;;
40675;SDS011;26359;48.750;9.314;2022-11-15T14:12:22;12.65;;;8.35;;
40675;SDS011;26359;48.750;9.314;2022-11-15T14:14:51;15.43;;;10.00;;
40675;SDS011;26359;48.750;9.314;2022-11-15T14:17:21;12.90;;;9.23;;
40675;SDS011;26359;48.750;9.314;2022-11-15T14:19:53;11.77;;;10.60;;
40675;SDS011;26359;48.750;9.314;2022-11-15T14:22:20;11.63;;;9.38;;
40675;SDS011;26359;48.750;9.314;2022-11-15T14:25:32;11.20;;;9.80;;
40675;SDS011;26359;48.750;9.314;2022-11-15T14:27:45;12.43;;;7.47;;
40675;SDS011;26359;48.750;9.314;2022-11-15T14:30:35;14.30;;;10.73;;
40675;SDS011;26359;48.750;9.314;2022-11-15T14:33:01;13.43;;;9.10;;
40675;SDS011;26359;48.750;9.314;2022-11-15T14:35:38;11.20;;;8.75;;
40675;SDS011;26359;48.750;9.314;2022-11-15T14:38:04;8.40;;;7.60;;
40675;SDS011;26359;48.750;9.314;2022-11-15T14:40:30;11.52;;;7.80;;
40675;SDS011;26359;48.750;9.314;2022-11-15T14:42:56;12.00;;;9.15;;
40675;SDS011;26359;48.750;9.314;2022-11-15T14:45:21;10.10;;;8.73;;
40675;SDS011;26359;48.750;9.314;2022-11-15T14:47:47;10.30;;;9.30;;
40675;SDS011;26359;48.750;9.314;2022-11-15T14:50:14;12.85;;;10.40;;
40675;SDS011;26359;48.750;9.314;2022-11-15T14:52:44;10.73;;;9.63;;
40675;SDS011;26359;48.750;9.314;2022-11-15T14:55:17;13.57;;;10.52;;
40675;SDS011;26359;48.750;9.314;2022-11-15T14:57:47;13.90;;;12.70;;
40675;SDS011;26359;48.750;9.314;2022-11-15T15:00:12;14.82;;;13.63;;
40675;SDS011;26359;48.750;9.314;2022-11-15T15:02:40;14.23;;;12.85;;
40675;SDS011;26359;48.750;9.314;2022-11-15T15:05:20;16.35;;;14.95;;
40675;SDS011;26359;48.750;9.314;2022-11-15T15:07:49;17.77;;;16.23;;
40675;SDS011;26359;48.750;9.314;2022-11-15T15:10:16;18.30;;;13.23;;
40675;SDS011;26359;48.750;9.314;2022-11-15T15:12:42;13.70;;;11.85;;
40675;SDS011;26359;48.750;9.314;2022-11-15T15:15:16;16.60;;;15.20;;
40675;SDS011;26359;48.750;9.314;2022-11-15T15:17:47;22.70;;;20.52;;
40675;SDS011;26359;48.750;9.314;2022-11-15T15:20:12;23.80;;;22.00;;
40675;SDS011;26359;48.750;9.314;2022-11-15T15:22:38;24.65;;;22.25;;
40675;SDS011;26359;48.750;9.314;2022-11-15T15:25:14;24.05;;;21.80;;
40675;SDS011;26359;48.750;9.314;2022-11-15T15:27:54;17.83;;;16.23;;
40675;SDS011;26359;48.750;9.314;2022-11-15T15:30:21;20.40;;;17.73;;
40675;SDS011;26359;48.750;9.314;2022-11-15T15:32:47;15.95;;;14.52;;
40675;SDS011;26359;48.750;9.314;2022-11-15T15:35:14;12.43;;;10.23;;
40675;SDS011;26359;48.750;9.314;2022-11-15T15:37:40;12.57;;;9.10;;
40675;SDS011;26359;48.750;9.314;2022-11-15T15:40:17;12.68;;;11.38;;
40675;SDS011;26359;48.750;9.314;2022-11-15T15:42:45;13.68;;;12.30;;
40675;SDS011;26359;48.750;9.314;2022-11-15T15:45:11;14.73;;;13.27;;
40675;SDS011;26359;48.750;9.314;2022-11-15T15:47:37;17.73;;;15.10;;
40675;SDS011;26359;48.750;9.314;2022-11-15T15:50:03;13.23;;;9.15;;
40675;SDS011;26359;48.750;9.314;2022-11-15T15:52:48;14.98;;;13.48;;
40675;SDS011;26359;48.750;9.314;2022-11-15T15:55:15;14.30;;;12.70;;
40675;SDS011;26359;48.750;9.314;2022-11-15T15:57:40;19.65;;;13.60;;
40675;SDS011;26359;48.750;9.314;2022-11-15T16:00:06;18.30;;;12.85;;
40675;SDS011;26359;48.750;9.314;2022-11-15T16:02:33;14.63;;;12.90;;
40675;SDS011;26359;48.750;9.314;2022-11-15T16:04:59;16.75;;;12.30;;
40675;SDS011;26359;48.750;9.314;2022-11-15T16:07:24;14.80;;;13.27;;
40675;SDS011;26359;48.750;9.314;2022-11-15T16:09:50;19.83;;;16.73;;
40675;SDS011;26359;48.750;9.314;2022-11-15T16:12:25;17.88;;;15.35;;
40675;SDS011;26359;48.750;9.314;2022-11-15T16:14:58;17.35;;;12.23;;
40675;SDS011;26359;48.750;9.314;2022-11-15T16:17:25;16.23;;;13.65;;
40675;SDS011;26359;48.750;9.314;2022-11-15T16:19:55;15.98;;;12.00;;
40675;SDS011;26359;48.750;9.314;2022-11-15T16:22:20;13.65;;;10.48;;
40675;SDS011;26359;48.750;9.314;2022-11-15T16:24:46;16.67;;;13.10;;
40675;SDS011;26359;48.750;9.314;2022-11-15T16:27:13;25.40;;;17.63;;
40675;SDS011;26359;48.750;9.314;2022-11-15T16:29:40;16.75;;;14.50;;
40675;SDS011;26359;48.750;9.314;2022-11-15T16:32:05;14.75;;;12.55;;
40675;SDS011;26359;48.750;9.314;2022-11-15T16:34:31;18.80;;;13.27;;
40675;SDS011;26359;48.750;9.314;2022-11-15T16:36:56;14.45;;;12.63;;
40675;SDS011;26359;48.750;9.314;2022-11-15T16:39:22;15.90;;;10.50;;